createdAt,value
2023-02-23T00:02:06.598Z,8.00
2023-02-23T00:04:37.062Z,8.00
2023-02-23T00:07:04.113Z,8.00
2023-02-23T00:09:35.493Z,8.00
2023-02-23T00:12:07.719Z,8.00
2023-02-23T00:14:35.512Z,8.00
2023-02-23T00:17:02.126Z,8.00
2023-02-23T00:19:28.755Z,7.90
2023-02-23T00:21:58.731Z,7.90
2023-02-23T00:24:26.990Z,7.90
2023-02-23T00:26:54.185Z,7.90
2023-02-23T00:29:23.007Z,7.80
2023-02-23T00:31:51.590Z,7.80
2023-02-23T00:34:21.172Z,7.70
2023-02-23T00:36:51.119Z,7.70
2023-02-23T00:39:29.101Z,7.70
2023-02-23T00:41:56.229Z,7.60
2023-02-23T00:44:24.482Z,7.60
2023-02-23T00:46:52.611Z,7.60
2023-02-23T00:49:20.751Z,7.50
2023-02-23T00:51:48.035Z,7.50
2023-02-23T00:54:16.380Z,7.50
2023-02-23T00:56:43.594Z,7.50
2023-02-23T00:59:11.073Z,7.50
2023-02-23T01:01:38.798Z,7.50
2023-02-23T01:04:07.197Z,7.50
2023-02-23T01:06:37.584Z,7.50
2023-02-23T01:09:13.475Z,7.50
2023-02-23T01:11:41.458Z,7.50
2023-02-23T01:14:08.393Z,7.60
2023-02-23T01:16:35.303Z,7.60
2023-02-23T01:19:05.190Z,7.50
2023-02-23T01:21:37.188Z,7.50
2023-02-23T01:24:04.206Z,7.60
2023-02-23T01:26:36.601Z,7.60
2023-02-23T01:29:11.704Z,7.60
2023-02-23T01:31:40.521Z,7.60
2023-02-23T01:34:07.871Z,7.60
2023-02-23T01:36:37.041Z,7.60
2023-02-23T01:39:07.480Z,7.60
2023-02-23T01:41:36.488Z,7.60
2023-02-23T01:44:28.252Z,7.60
2023-02-23T01:46:54.992Z,7.60
2023-02-23T01:49:25.716Z,7.50
2023-02-23T01:51:59.785Z,7.50
2023-02-23T01:54:31.084Z,7.50
2023-02-23T01:57:02.727Z,7.50
2023-02-23T01:59:38.808Z,7.50
2023-02-23T02:02:05.625Z,7.50
2023-02-23T02:04:43.902Z,7.50
2023-02-23T02:07:14.272Z,7.50
2023-02-23T02:10:03.192Z,7.50
2023-02-23T02:12:29.805Z,7.50
2023-02-23T02:14:59.550Z,7.50
2023-02-23T02:17:39.944Z,7.60
2023-02-23T02:20:52.519Z,7.50
2023-02-23T02:23:37.045Z,7.50
2023-02-23T02:26:16.323Z,7.50
2023-02-23T02:29:04.172Z,7.50
2023-02-23T02:32:01.358Z,7.60
2023-02-23T02:34:54.702Z,7.60
2023-02-23T02:37:48.774Z,7.50
2023-02-23T02:40:57.163Z,7.50
2023-02-23T02:43:46.910Z,7.50
2023-02-23T02:46:18.428Z,7.50
2023-02-23T02:48:57.595Z,7.50
2023-02-23T02:51:39.519Z,7.40
2023-02-23T02:54:30.380Z,7.50
2023-02-23T02:57:00.369Z,7.50
2023-02-23T02:59:47.016Z,7.50
2023-02-23T03:02:38.427Z,7.50
2023-02-23T03:05:47.007Z,7.50
2023-02-23T03:09:11.453Z,7.50
2023-02-23T03:12:12.456Z,7.50
2023-02-23T03:15:14.069Z,7.60
2023-02-23T03:18:06.583Z,7.60
2023-02-23T03:20:51.946Z,7.60
2023-02-23T03:23:43.475Z,7.70
2023-02-23T03:26:49.784Z,7.70
2023-02-23T03:29:48.575Z,7.70
2023-02-23T03:32:49.579Z,7.70
2023-02-23T03:36:04.154Z,7.70
2023-02-23T03:38:56.775Z,7.70
2023-02-23T03:41:44.663Z,7.70
2023-02-23T03:44:36.127Z,7.70
2023-02-23T03:47:24.551Z,7.70
2023-02-23T03:50:11.188Z,7.70
2023-02-23T03:53:04.661Z,7.70
2023-02-23T03:55:54.760Z,7.70
2023-02-23T03:58:49.592Z,7.70
2023-02-23T04:01:38.090Z,7.70
2023-02-23T04:04:26.316Z,7.70
2023-02-23T04:07:13.718Z,7.70
2023-02-23T04:09:59.176Z,7.70
2023-02-23T04:13:06.032Z,7.70
2023-02-23T04:15:49.306Z,7.70
2023-02-23T04:18:21.729Z,7.70
2023-02-23T04:20:48.443Z,7.70
2023-02-23T04:23:15.185Z,7.70
2023-02-23T04:25:42.041Z,7.70
2023-02-23T04:28:08.666Z,7.70
2023-02-23T04:30:35.649Z,7.70
2023-02-23T04:33:03.490Z,7.70
2023-02-23T04:35:31.404Z,7.70
2023-02-23T04:37:58.713Z,7.70
2023-02-23T04:40:26.267Z,7.70
2023-02-23T04:42:53.631Z,7.70
2023-02-23T04:45:22.084Z,7.70
2023-02-23T04:47:48.959Z,7.70
2023-02-23T04:50:16.148Z,7.70
2023-02-23T04:52:43.212Z,7.70
2023-02-23T04:55:21.348Z,7.70
2023-02-23T04:57:48.382Z,7.60
2023-02-23T05:00:16.235Z,7.70
2023-02-23T05:02:43.048Z,7.70
2023-02-23T05:05:10.097Z,7.70
2023-02-23T05:07:37.246Z,7.70
2023-02-23T05:10:05.656Z,7.70
2023-02-23T05:12:32.495Z,7.60
2023-02-23T05:14:59.229Z,7.60
2023-02-23T05:17:26.076Z,7.60
2023-02-23T05:19:53.436Z,7.60
2023-02-23T05:22:20.180Z,7.60
2023-02-23T05:24:47.566Z,7.60
2023-02-23T05:27:15.607Z,7.60
2023-02-23T05:29:42.299Z,7.60
2023-02-23T05:32:09.040Z,7.60
2023-02-23T05:34:36.727Z,7.70
2023-02-23T05:37:03.463Z,7.60
2023-02-23T05:39:30.440Z,7.60
2023-02-23T05:41:57.072Z,7.60
2023-02-23T05:44:24.814Z,7.70
2023-02-23T05:46:51.484Z,7.60
2023-02-23T05:49:18.189Z,7.70
2023-02-23T05:51:44.847Z,7.70
2023-02-23T05:54:11.490Z,7.70
2023-02-23T05:56:38.380Z,7.70
2023-02-23T05:59:05.381Z,7.70
2023-02-23T06:01:33.145Z,7.60
2023-02-23T06:03:59.872Z,7.60
2023-02-23T06:06:28.374Z,7.70
2023-02-23T06:08:55.265Z,7.60
2023-02-23T06:11:22.495Z,7.70
2023-02-23T06:13:49.595Z,7.60
2023-02-23T06:16:16.766Z,7.70
2023-02-23T06:18:43.468Z,7.70
2023-02-23T06:21:10.318Z,7.70
2023-02-23T06:23:38.080Z,7.70
2023-02-23T06:26:04.966Z,7.70
2023-02-23T06:28:31.687Z,7.70
2023-02-23T06:30:58.439Z,7.70
2023-02-23T06:33:25.943Z,7.70
2023-02-23T06:35:53.544Z,7.70
2023-02-23T06:38:20.757Z,7.70
2023-02-23T06:40:47.568Z,7.70
2023-02-23T06:43:14.332Z,7.60
2023-02-23T06:45:41.033Z,7.70
2023-02-23T06:48:07.900Z,7.60
2023-02-23T06:50:34.665Z,7.60
2023-02-23T06:53:01.350Z,7.60
2023-02-23T06:55:28.039Z,7.60
2023-02-23T06:57:54.725Z,7.70
2023-02-23T07:00:22.191Z,7.70
2023-02-23T07:02:49.386Z,7.60
2023-02-23T07:05:16.264Z,7.60
2023-02-23T07:07:43.263Z,7.60
2023-02-23T07:10:10.622Z,7.60
2023-02-23T07:12:37.305Z,7.60
2023-02-23T07:15:04.542Z,7.60
2023-02-23T07:17:31.168Z,7.60
2023-02-23T07:19:58.326Z,7.60
2023-02-23T07:22:29.276Z,7.60
2023-02-23T07:24:57.033Z,7.60
2023-02-23T07:27:23.758Z,7.60
2023-02-23T07:29:50.491Z,7.60
2023-02-23T07:32:17.205Z,7.60
2023-02-23T07:34:43.993Z,7.60
2023-02-23T07:37:10.741Z,7.60
2023-02-23T07:39:37.375Z,7.60
2023-02-23T07:42:04.601Z,7.60
2023-02-23T07:44:31.247Z,7.70
2023-02-23T07:46:57.942Z,7.60
2023-02-23T07:49:25.327Z,7.60
2023-02-23T07:51:51.937Z,7.60
2023-02-23T07:54:18.652Z,7.70
2023-02-23T07:56:45.274Z,7.70
2023-02-23T07:59:11.937Z,7.80
2023-02-23T08:01:38.549Z,7.80
2023-02-23T08:04:05.591Z,7.80
2023-02-23T08:06:32.380Z,7.80
2023-02-23T08:09:01.115Z,7.80
2023-02-23T08:11:30.978Z,7.80
2023-02-23T08:14:00.186Z,7.80
2023-02-23T08:16:28.718Z,7.90
2023-02-23T08:19:00.375Z,7.90
2023-02-23T08:21:29.376Z,7.90
2023-02-23T08:23:59.615Z,7.80
2023-02-23T08:26:26.607Z,7.80
2023-02-23T08:28:54.634Z,7.80
2023-02-23T08:31:24.338Z,7.80
2023-02-23T08:33:52.526Z,7.90
2023-02-23T08:36:20.677Z,7.80
2023-02-23T08:38:47.928Z,7.90
2023-02-23T08:41:14.735Z,7.90
2023-02-23T08:43:41.475Z,7.90
2023-02-23T08:46:08.372Z,7.90
2023-02-23T08:48:35.668Z,7.80
2023-02-23T08:51:02.368Z,7.90
2023-02-23T08:53:30.730Z,7.90
2023-02-23T08:55:58.840Z,7.90
2023-02-23T08:58:25.531Z,7.90
2023-02-23T09:00:53.139Z,7.80
2023-02-23T09:03:23.692Z,7.80
2023-02-23T09:05:50.517Z,7.80
2023-02-23T09:08:17.204Z,7.90
2023-02-23T09:10:43.983Z,7.90
2023-02-23T09:13:12.315Z,7.90
2023-02-23T09:15:40.208Z,7.90
2023-02-23T09:18:10.295Z,7.90
2023-02-23T09:20:36.983Z,7.90
2023-02-23T09:23:03.662Z,8.00
2023-02-23T09:25:31.463Z,8.00
2023-02-23T09:27:59.578Z,8.00
2023-02-23T09:30:27.864Z,8.00
2023-02-23T09:32:56.280Z,7.90
2023-02-23T09:35:24.814Z,7.90
2023-02-23T09:37:54.828Z,7.90
2023-02-23T09:40:29.154Z,7.90
2023-02-23T09:43:04.991Z,7.90
2023-02-23T09:45:54.803Z,7.90
2023-02-23T09:48:28.192Z,7.90
2023-02-23T09:50:57.293Z,7.90
2023-02-23T09:53:38.316Z,8.00
2023-02-23T09:56:14.478Z,8.00
2023-02-23T09:58:41.724Z,8.10
2023-02-23T10:01:33.300Z,8.20
2023-02-23T10:04:21.364Z,8.20
2023-02-23T10:06:59.848Z,8.30
2023-02-23T10:09:32.319Z,8.30
2023-02-23T10:12:05.787Z,8.40
2023-02-23T10:15:00.237Z,8.50
2023-02-23T10:17:31.989Z,8.50
2023-02-23T10:20:18.864Z,8.50
2023-02-23T10:22:48.135Z,8.60
2023-02-23T10:25:20.572Z,8.70
2023-02-23T10:27:50.199Z,8.70
2023-02-23T10:30:27.240Z,8.70
2023-02-23T10:33:03.160Z,8.70
2023-02-23T10:35:30.975Z,8.70
2023-02-23T10:38:00.142Z,8.60
2023-02-23T10:40:29.940Z,8.70
2023-02-23T10:42:58.392Z,8.70
2023-02-23T10:45:27.502Z,8.60
2023-02-23T10:48:11.285Z,8.60
2023-02-23T10:50:40.863Z,8.60
2023-02-23T10:53:16.506Z,8.60
2023-02-23T10:55:46.780Z,8.60
2023-02-23T10:58:17.772Z,8.60
2023-02-23T11:01:10.692Z,8.60
2023-02-23T11:03:43.150Z,8.60
2023-02-23T11:06:32.780Z,8.60
2023-02-23T11:09:16.125Z,8.70
2023-02-23T11:12:15.546Z,8.70
2023-02-23T11:14:42.685Z,8.70
2023-02-23T11:17:26.615Z,8.70
2023-02-23T11:20:18.125Z,8.70
2023-02-23T11:22:45.412Z,8.70
2023-02-23T11:25:35.002Z,8.70
2023-02-23T11:28:01.879Z,8.80
2023-02-23T11:30:37.120Z,8.80
2023-02-23T11:33:11.897Z,8.80
2023-02-23T11:35:38.941Z,8.80
2023-02-23T11:38:35.108Z,8.80
2023-02-23T11:41:11.266Z,8.80
2023-02-23T11:43:37.855Z,8.70
2023-02-23T11:46:04.711Z,8.60
2023-02-23T11:48:51.982Z,8.60
2023-02-23T11:51:36.928Z,8.60
2023-02-23T11:54:05.766Z,8.70
2023-02-23T11:56:35.272Z,8.70
2023-02-23T11:59:15.708Z,8.80
2023-02-23T12:01:46.455Z,8.70
2023-02-23T12:04:32.619Z,8.80
2023-02-23T12:07:42.807Z,8.80
2023-02-23T12:10:28.048Z,8.80
2023-02-23T12:13:17.455Z,8.90
2023-02-23T12:16:09.080Z,9.00
2023-02-23T12:19:41.745Z,9.00
2023-02-23T12:22:17.667Z,9.00
2023-02-23T12:25:02.302Z,9.00
2023-02-23T12:27:41.531Z,8.90
2023-02-23T12:30:27.312Z,8.80
2023-02-23T12:32:53.914Z,8.80
2023-02-23T12:35:29.512Z,8.80
2023-02-23T12:38:18.761Z,8.80
2023-02-23T12:40:45.771Z,8.80
2023-02-23T12:43:24.911Z,8.80
2023-02-23T12:46:15.009Z,9.10
2023-02-23T12:49:04.089Z,8.90
2023-02-23T12:51:36.374Z,8.90
2023-02-23T12:54:05.675Z,8.90
2023-02-23T12:56:45.150Z,8.90
2023-02-23T12:59:55.964Z,8.90
2023-02-23T13:02:22.636Z,9.00
2023-02-23T13:05:13.086Z,9.00
2023-02-23T13:08:04.784Z,9.00
2023-02-23T13:10:40.780Z,8.90
2023-02-23T13:13:33.767Z,9.00
2023-02-23T13:16:06.415Z,8.90
2023-02-23T13:18:48.985Z,8.80
2023-02-23T13:21:29.192Z,8.80
2023-02-23T13:24:04.662Z,8.70
2023-02-23T13:26:45.327Z,8.80
2023-02-23T13:29:46.728Z,8.80
2023-02-23T13:32:23.887Z,9.00
2023-02-23T13:35:00.518Z,9.10
2023-02-23T13:37:48.028Z,9.20
2023-02-23T13:40:42.954Z,9.30
2023-02-23T13:43:23.086Z,9.30
2023-02-23T13:46:11.665Z,9.20
2023-02-23T13:48:57.232Z,9.20
2023-02-23T13:51:31.003Z,9.10
2023-02-23T13:53:57.628Z,9.10
2023-02-23T13:56:30.118Z,9.10
2023-02-23T13:59:15.595Z,9.10
2023-02-23T14:01:47.838Z,9.00
2023-02-23T14:04:20.815Z,9.10
2023-02-23T14:06:53.809Z,9.00
2023-02-23T14:09:24.318Z,9.00
2023-02-23T14:12:11.281Z,9.00
2023-02-23T14:14:42.170Z,9.00
2023-02-23T14:17:16.167Z,9.00
2023-02-23T14:20:17.898Z,9.10
2023-02-23T14:23:17.302Z,9.10
2023-02-23T14:26:10.283Z,9.00
2023-02-23T14:28:45.541Z,9.00
2023-02-23T14:31:15.921Z,9.00
2023-02-23T14:33:42.611Z,9.00
2023-02-23T14:36:24.295Z,9.00
2023-02-23T14:39:02.435Z,9.00
2023-02-23T14:41:53.449Z,9.00
2023-02-23T14:44:30.793Z,8.90
2023-02-23T14:47:08.227Z,8.90
2023-02-23T14:49:40.446Z,8.90
2023-02-23T14:52:13.881Z,8.80
2023-02-23T14:54:41.444Z,8.80
2023-02-23T14:57:25.841Z,8.80
2023-02-23T15:00:06.818Z,8.80
2023-02-23T15:02:35.495Z,8.70
2023-02-23T15:05:16.384Z,8.70
2023-02-23T15:07:45.212Z,8.70
2023-02-23T15:10:27.903Z,8.80
2023-02-23T15:12:55.290Z,8.80
2023-02-23T15:15:24.924Z,8.80
2023-02-23T15:17:59.200Z,8.60
2023-02-23T15:23:05.080Z,8.40
2023-02-23T15:25:39.635Z,8.30
2023-02-23T15:28:23.025Z,8.20
2023-02-23T15:30:51.356Z,8.10
2023-02-23T15:33:23.570Z,8.10
2023-02-23T15:36:00.145Z,8.00
2023-02-23T15:38:43.025Z,7.90
2023-02-23T15:41:22.978Z,7.80
2023-02-23T15:43:49.699Z,7.70
2023-02-23T15:46:24.230Z,7.60
2023-02-23T15:48:53.324Z,7.50
2023-02-23T15:51:37.667Z,7.50
2023-02-23T15:54:21.990Z,7.50
2023-02-23T15:56:54.551Z,7.40
2023-02-23T15:59:28.523Z,7.40
2023-02-23T16:01:58.343Z,7.30
2023-02-23T16:04:32.600Z,7.30
2023-02-23T16:07:18.586Z,7.40
2023-02-23T16:09:54.399Z,7.30
2023-02-23T16:12:22.944Z,7.30
2023-02-23T16:15:02.430Z,7.20
2023-02-23T16:17:43.492Z,7.10
2023-02-23T16:20:18.822Z,7.10
2023-02-23T16:22:46.978Z,7.00
2023-02-23T16:25:18.406Z,7.00
2023-02-23T16:27:46.782Z,7.00
2023-02-23T16:30:34.237Z,7.00
2023-02-23T16:33:24.426Z,7.00
2023-02-23T16:36:04.837Z,7.00
2023-02-23T16:38:39.008Z,6.90
2023-02-23T16:41:21.913Z,6.90
2023-02-23T16:43:50.746Z,6.90
2023-02-23T16:46:18.472Z,6.80
2023-02-23T16:48:45.480Z,6.80
2023-02-23T16:51:17.093Z,6.80
2023-02-23T16:53:44.752Z,6.80
2023-02-23T16:56:19.118Z,6.80
2023-02-23T16:58:58.455Z,6.80
2023-02-23T17:01:25.184Z,6.80
2023-02-23T17:03:53.967Z,6.70
2023-02-23T17:06:22.351Z,6.80
2023-02-23T17:08:57.669Z,6.70
2023-02-23T17:11:25.309Z,6.70
2023-02-23T17:13:51.971Z,6.70
2023-02-23T17:16:19.677Z,6.70
2023-02-23T17:18:46.637Z,6.70
2023-02-23T17:21:14.681Z,6.60
2023-02-23T17:23:50.908Z,6.60
2023-02-23T17:26:23.275Z,6.60
2023-02-23T17:28:50.592Z,6.60
2023-02-23T17:31:19.736Z,6.60
2023-02-23T17:33:47.633Z,6.60
2023-02-23T17:36:17.372Z,6.60
2023-02-23T17:38:44.818Z,6.60
2023-02-23T17:41:17.913Z,6.60
2023-02-23T17:43:45.179Z,6.60
2023-02-23T17:46:12.803Z,6.60
2023-02-23T17:48:40.652Z,6.60
2023-02-23T17:51:10.174Z,6.60
2023-02-23T17:53:36.964Z,6.60
2023-02-23T17:56:04.340Z,6.60
2023-02-23T17:58:30.968Z,6.60
2023-02-23T18:00:59.382Z,6.60
2023-02-23T18:03:31.721Z,6.60
2023-02-23T18:06:06.863Z,6.60
2023-02-23T18:08:34.196Z,6.60
2023-02-23T18:11:01.286Z,6.60
2023-02-23T18:13:29.338Z,6.60
2023-02-23T18:16:01.111Z,6.50
2023-02-23T18:18:28.291Z,6.50
2023-02-23T18:20:57.632Z,6.50
2023-02-23T18:23:25.624Z,6.50
2023-02-23T18:25:52.232Z,6.50
2023-02-23T18:28:19.064Z,6.50
2023-02-23T18:30:45.836Z,6.50
2023-02-23T18:33:13.480Z,6.50
2023-02-23T18:35:44.854Z,6.50
2023-02-23T18:38:13.784Z,6.40
2023-02-23T18:40:41.058Z,6.50
2023-02-23T18:43:08.343Z,6.40
2023-02-23T18:45:35.276Z,6.40
2023-02-23T18:48:02.026Z,6.40
2023-02-23T18:50:29.094Z,6.40
2023-02-23T18:52:58.000Z,6.40
2023-02-23T18:55:24.806Z,6.40
2023-02-23T18:57:52.734Z,6.40
2023-02-23T19:00:20.457Z,6.30
2023-02-23T19:02:47.775Z,6.30
2023-02-23T19:05:16.201Z,6.30
2023-02-23T19:07:43.722Z,6.30
2023-02-23T19:10:14.802Z,6.20
2023-02-23T19:12:41.690Z,6.10
2023-02-23T19:15:09.449Z,6.00
2023-02-23T19:17:36.726Z,6.00
2023-02-23T19:20:08.056Z,5.90
2023-02-23T19:22:35.237Z,5.80
2023-02-23T19:25:02.213Z,5.80
2023-02-23T19:27:28.881Z,5.70
2023-02-23T19:29:55.563Z,5.70
2023-02-23T19:32:22.374Z,5.60
2023-02-23T19:34:49.481Z,5.60
2023-02-23T19:37:16.194Z,5.60
2023-02-23T19:39:44.861Z,5.60
2023-02-23T19:42:12.115Z,5.50
2023-02-23T19:44:38.710Z,5.40
2023-02-23T19:47:05.352Z,5.40
2023-02-23T19:49:32.013Z,5.30
2023-02-23T19:51:58.821Z,5.20
2023-02-23T19:54:26.140Z,5.10
2023-02-23T19:56:53.053Z,5.10
2023-02-23T19:59:19.835Z,5.00
2023-02-23T20:01:46.475Z,5.00
2023-02-23T20:04:13.263Z,4.90
2023-02-23T20:06:44.857Z,4.90
2023-02-23T20:09:11.986Z,4.80
2023-02-23T20:11:40.473Z,4.70
2023-02-23T20:14:08.077Z,4.70
2023-02-23T20:16:35.487Z,4.70
2023-02-23T20:19:03.740Z,4.70
2023-02-23T20:21:32.273Z,4.60
2023-02-23T20:24:01.539Z,4.70
2023-02-23T20:26:35.213Z,4.70
2023-02-23T20:29:03.129Z,4.80
2023-02-23T20:31:32.663Z,4.80
2023-02-23T20:34:03.446Z,4.80
2023-02-23T20:36:30.149Z,4.80
2023-02-23T20:38:56.789Z,4.90
2023-02-23T20:41:25.336Z,4.90
2023-02-23T20:43:52.301Z,4.90
2023-02-23T20:46:19.816Z,4.90
2023-02-23T20:48:48.992Z,4.80
2023-02-23T20:51:18.625Z,4.80
2023-02-23T20:53:48.041Z,4.70
2023-02-23T20:56:17.207Z,4.70
2023-02-23T20:58:44.378Z,4.70
2023-02-23T21:01:16.110Z,4.70
2023-02-23T21:03:42.919Z,4.60
2023-02-23T21:06:09.605Z,4.60
2023-02-23T21:08:39.745Z,4.60
2023-02-23T21:11:07.836Z,4.50
2023-02-23T21:13:35.388Z,4.50
2023-02-23T21:16:03.113Z,4.40
2023-02-23T21:18:31.163Z,4.40
2023-02-23T21:21:06.504Z,4.30
2023-02-23T21:23:33.271Z,4.30
2023-02-23T21:26:07.073Z,4.20
2023-02-23T21:28:33.898Z,4.20
2023-02-23T21:31:00.515Z,4.10
2023-02-23T21:33:27.215Z,4.10
2023-02-23T21:35:58.543Z,4.00
2023-02-23T21:38:25.821Z,3.90
2023-02-23T21:40:52.638Z,3.90
2023-02-23T21:43:19.356Z,3.90
2023-02-23T21:45:46.687Z,3.90
2023-02-23T21:48:13.907Z,4.00
2023-02-23T21:50:40.977Z,4.00
2023-02-23T21:53:09.589Z,4.00
2023-02-23T21:55:38.683Z,4.10
2023-02-23T21:58:09.531Z,4.10
2023-02-23T22:00:36.742Z,4.20
2023-02-23T22:03:03.756Z,4.20
2023-02-23T22:05:30.453Z,4.20
2023-02-23T22:07:57.138Z,4.20
2023-02-23T22:10:24.540Z,4.20
2023-02-23T22:12:56.010Z,4.30
2023-02-23T22:15:27.791Z,4.30
2023-02-23T22:17:55.178Z,4.30
2023-02-23T22:20:22.242Z,4.30
2023-02-23T22:22:52.517Z,4.40
2023-02-23T22:25:20.376Z,4.30
2023-02-23T22:27:47.731Z,4.30
2023-02-23T22:30:15.702Z,4.20
2023-02-23T22:32:43.600Z,4.20
2023-02-23T22:35:11.398Z,4.10
2023-02-23T22:37:38.760Z,4.00
2023-02-23T22:40:13.577Z,4.00
2023-02-23T22:42:43.436Z,3.90
2023-02-23T22:45:11.041Z,3.90
2023-02-23T22:47:38.859Z,3.80
2023-02-23T22:50:06.856Z,3.70
2023-02-23T22:52:34.713Z,3.60
2023-02-23T22:55:03.193Z,3.70
2023-02-23T22:57:30.162Z,3.60
2023-02-23T23:00:00.693Z,3.50
2023-02-23T23:02:36.097Z,3.40
2023-02-23T23:05:02.900Z,3.40
2023-02-23T23:07:31.173Z,3.40
2023-02-23T23:09:58.693Z,3.40
2023-02-23T23:12:28.098Z,3.50
2023-02-23T23:14:56.064Z,3.40
2023-02-23T23:17:23.291Z,3.50
2023-02-23T23:19:50.224Z,3.60
2023-02-23T23:22:17.439Z,3.70
2023-02-23T23:24:46.177Z,3.70
2023-02-23T23:27:16.695Z,3.70
2023-02-23T23:29:46.585Z,3.70
2023-02-23T23:32:18.726Z,3.80
2023-02-23T23:34:49.471Z,3.80
2023-02-23T23:37:19.826Z,3.80
2023-02-23T23:39:46.614Z,3.90
2023-02-23T23:42:13.424Z,3.90
2023-02-23T23:44:40.248Z,3.90
2023-02-23T23:47:07.044Z,3.90
2023-02-23T23:49:40.105Z,3.80
2023-02-23T23:52:07.400Z,3.80
2023-02-23T23:54:40.802Z,3.80
2023-02-23T23:57:07.695Z,3.90
2023-02-23T23:59:35.535Z,3.90
